createdAt,value
2023-04-02T00:00:19.292Z,56.59
2023-04-02T00:05:33.322Z,56.54
2023-04-02T00:10:36.981Z,56.53
2023-04-02T00:15:42.267Z,56.72
2023-04-02T00:20:51.613Z,57.00
2023-04-02T00:25:54.214Z,57.93
2023-04-02T00:30:59.942Z,58.76
2023-04-02T00:36:08.154Z,59.49
2023-04-02T00:41:16.863Z,60.28
2023-04-02T00:46:30.348Z,59.99
2023-04-02T00:51:39.082Z,60.00
2023-04-02T00:56:48.100Z,60.26
2023-04-02T01:02:18.780Z,60.46
2023-04-02T01:07:37.672Z,60.51
2023-04-02T01:13:33.874Z,60.67
2023-04-02T01:18:54.997Z,60.31
2023-04-02T01:23:58.023Z,60.47
2023-04-02T01:29:14.188Z,60.33
2023-04-02T01:34:20.369Z,60.12
2023-04-02T01:39:44.724Z,59.74
2023-04-02T01:44:53.441Z,59.87
2023-04-02T01:50:03.804Z,59.78
2023-04-02T01:55:10.495Z,60.07
2023-04-02T02:00:19.285Z,60.63
2023-04-02T02:05:26.555Z,60.97
2023-04-02T02:10:37.333Z,61.32
2023-04-02T02:15:40.018Z,61.36
2023-04-02T02:20:43.140Z,61.66
2023-04-02T02:25:47.990Z,61.67
2023-04-02T02:30:57.407Z,61.36
2023-04-02T02:36:02.730Z,60.95
2023-04-02T02:41:31.269Z,60.52
2023-04-02T02:46:36.270Z,60.37
2023-04-02T02:51:52.822Z,59.98
2023-04-02T02:57:13.617Z,59.86
2023-04-02T03:02:17.063Z,59.55
2023-04-02T03:07:25.826Z,59.32
2023-04-02T03:13:02.493Z,59.16
2023-04-02T03:18:18.329Z,59.26
2023-04-02T03:23:29.276Z,59.06
2023-04-02T03:28:37.672Z,58.94
2023-04-02T03:34:08.269Z,58.76
2023-04-02T03:39:34.135Z,58.75
2023-04-02T03:44:46.131Z,58.84
2023-04-02T03:50:12.516Z,58.44
2023-04-02T03:55:24.545Z,58.18
2023-04-02T04:00:39.830Z,58.09
2023-04-02T04:05:54.748Z,58.02
2023-04-02T04:11:02.283Z,57.69
2023-04-02T04:16:15.820Z,57.85
2023-04-02T04:21:31.322Z,57.76
2023-04-02T04:26:55.201Z,57.79
2023-04-02T04:32:32.632Z,57.53
2023-04-02T04:37:45.339Z,57.51
2023-04-02T04:42:53.410Z,57.32
2023-04-02T04:48:21.015Z,57.20
2023-04-02T04:53:28.005Z,57.14
2023-04-02T04:58:36.529Z,57.16
2023-04-02T05:03:57.477Z,56.84
2023-04-02T05:09:13.789Z,56.26
2023-04-02T05:14:25.088Z,56.00
2023-04-02T05:19:38.462Z,56.06
2023-04-02T05:24:49.247Z,55.82
2023-04-02T05:30:01.207Z,55.81
2023-04-02T05:35:07.090Z,56.17
2023-04-02T05:40:19.721Z,56.64
2023-04-02T05:45:32.324Z,57.06
2023-04-02T05:50:43.568Z,57.66
2023-04-02T05:56:02.937Z,57.71
2023-04-02T06:01:17.875Z,57.76
2023-04-02T06:06:42.051Z,57.62
2023-04-02T06:11:57.195Z,57.24
2023-04-02T06:17:00.184Z,56.89
2023-04-02T06:22:37.424Z,56.75
2023-04-02T06:27:44.270Z,56.82
2023-04-02T06:32:48.945Z,56.09
2023-04-02T06:37:57.659Z,56.37
2023-04-02T06:43:14.947Z,55.80
2023-04-02T06:48:42.636Z,55.26
2023-04-02T06:53:48.389Z,54.70
2023-04-02T06:58:54.720Z,53.84
2023-04-02T07:03:58.993Z,52.97
2023-04-02T07:22:38.239Z,47.89
2023-04-02T07:27:41.564Z,46.22
2023-04-02T07:32:44.925Z,44.20
2023-04-02T07:37:47.858Z,43.76
2023-04-02T07:42:50.999Z,42.99
2023-04-02T07:47:54.770Z,42.15
2023-04-02T07:52:57.662Z,41.33
2023-04-02T07:58:00.707Z,40.29
2023-04-02T08:03:05.052Z,38.37
2023-04-02T08:08:08.999Z,38.86
2023-04-02T08:13:12.185Z,38.57
2023-04-02T08:18:15.046Z,38.02
2023-04-02T08:23:18.274Z,37.32
2023-04-02T08:28:22.601Z,36.79
2023-04-02T08:33:25.165Z,36.20
2023-04-02T08:38:28.004Z,36.02
2023-04-02T08:44:01.093Z,36.21
2023-04-02T08:49:12.077Z,36.13
2023-04-02T08:54:14.599Z,35.29
2023-04-02T08:59:32.177Z,34.14
2023-04-02T09:04:35.317Z,33.99
2023-04-02T09:09:38.745Z,32.55
2023-04-02T09:14:59.529Z,31.76
2023-04-02T09:20:22.901Z,30.97
2023-04-02T09:25:28.403Z,30.73
2023-04-02T09:30:52.627Z,30.54
2023-04-02T09:35:58.165Z,31.61
2023-04-02T09:41:07.132Z,31.17
2023-04-02T09:46:26.446Z,30.72
2023-04-02T09:51:34.725Z,30.47
2023-04-02T09:56:39.942Z,30.17
2023-04-02T10:01:59.536Z,30.69
2023-04-02T10:07:03.738Z,31.13
2023-04-02T10:12:14.377Z,31.03
2023-04-02T10:17:24.838Z,30.93
2023-04-02T10:22:28.781Z,31.30
2023-04-02T10:27:34.913Z,31.43
2023-04-02T10:32:47.758Z,31.00
2023-04-02T10:38:02.902Z,30.98
2023-04-02T10:43:47.152Z,30.95
2023-04-02T10:49:17.742Z,30.99
2023-04-02T10:54:30.988Z,31.86
2023-04-02T10:59:37.621Z,31.68
2023-04-02T11:04:46.621Z,31.00
2023-04-02T11:09:53.935Z,31.18
2023-04-02T11:14:56.902Z,31.18
2023-04-02T11:20:57.712Z,31.37
2023-04-02T11:26:38.535Z,32.10
2023-04-02T11:31:43.168Z,32.39
2023-04-02T11:36:52.904Z,32.59
2023-04-02T11:42:05.852Z,32.86
2023-04-02T11:47:30.105Z,32.91
2023-04-02T11:52:52.116Z,33.22
2023-04-02T11:58:29.967Z,32.75
2023-04-02T12:04:06.344Z,32.77
2023-04-02T12:09:25.433Z,33.37
2023-04-02T12:14:51.279Z,33.42
2023-04-02T12:19:57.596Z,34.07
2023-04-02T12:25:06.909Z,34.38
2023-04-02T12:30:21.151Z,34.93
2023-04-02T12:35:29.161Z,34.85
2023-04-02T12:40:32.384Z,35.53
2023-04-02T12:45:35.272Z,35.67
2023-04-02T12:50:41.999Z,36.61
2023-04-02T12:55:50.254Z,37.01
2023-04-02T13:00:53.023Z,37.75
2023-04-02T13:05:57.652Z,38.03
2023-04-02T13:11:05.464Z,38.37
2023-04-02T13:16:29.284Z,38.89
2023-04-02T13:21:32.459Z,38.85
2023-04-02T13:26:35.092Z,39.36
2023-04-02T13:31:40.360Z,40.11
2023-04-02T13:36:43.003Z,40.18
2023-04-02T13:41:52.364Z,40.69
2023-04-02T13:46:56.687Z,41.03
2023-04-02T13:52:05.233Z,41.37
2023-04-02T13:57:08.664Z,41.83
2023-04-02T14:02:21.009Z,42.43
2023-04-02T14:07:51.942Z,42.61
2023-04-02T14:12:59.097Z,43.02
2023-04-02T14:18:10.801Z,43.44
2023-04-02T14:23:44.487Z,43.71
2023-04-02T14:29:10.663Z,43.83
2023-04-02T14:34:27.470Z,44.11
2023-04-02T14:39:52.296Z,44.72
2023-04-02T14:45:05.244Z,45.26
2023-04-02T14:50:22.040Z,45.87
2023-04-02T14:55:36.399Z,46.29
2023-04-02T15:00:44.311Z,46.39
2023-04-02T15:05:56.376Z,46.89
2023-04-02T15:11:08.269Z,47.06
2023-04-02T15:16:21.447Z,47.24
2023-04-02T15:21:57.569Z,47.68
2023-04-02T15:27:39.496Z,47.98
2023-04-02T15:32:44.364Z,48.28
2023-04-02T15:38:17.117Z,48.50
2023-04-02T15:43:29.999Z,49.11
2023-04-02T15:48:58.672Z,49.62
2023-04-02T15:54:18.523Z,49.95
2023-04-02T16:00:12.159Z,50.43
2023-04-02T16:05:20.159Z,50.91
2023-04-02T16:10:40.874Z,51.13
2023-04-02T16:15:53.825Z,51.79
2023-04-02T16:21:03.951Z,51.85
2023-04-02T16:26:44.014Z,52.40
2023-04-02T16:32:31.863Z,52.57
2023-04-02T16:37:49.817Z,53.10
2023-04-02T16:43:06.675Z,53.28
2023-04-02T16:48:34.633Z,53.53
2023-04-02T16:53:39.927Z,54.10
2023-04-02T16:59:11.399Z,54.18
2023-04-02T17:04:26.562Z,54.78
2023-04-02T17:09:40.636Z,54.97
2023-04-02T17:14:58.540Z,55.54
2023-04-02T17:20:01.986Z,55.47
2023-04-02T17:25:07.944Z,55.85
2023-04-02T17:30:18.075Z,56.28
2023-04-02T17:35:30.165Z,56.48
2023-04-02T17:40:43.549Z,56.74
2023-04-02T17:45:52.103Z,57.14
2023-04-02T17:51:07.944Z,57.29
2023-04-02T17:56:24.675Z,57.81
2023-04-02T18:01:41.012Z,57.98
2023-04-02T18:06:51.351Z,58.13
2023-04-02T18:11:59.794Z,58.52
2023-04-02T18:17:27.540Z,58.91
2023-04-02T18:22:33.109Z,59.17
2023-04-02T18:27:47.936Z,59.60
2023-04-02T18:33:29.978Z,59.85
2023-04-02T18:38:49.386Z,60.08
2023-04-02T18:44:42.940Z,60.35
2023-04-02T18:49:57.664Z,60.57
2023-04-02T18:55:10.594Z,60.58
2023-04-02T19:00:34.089Z,61.10
2023-04-02T19:05:56.104Z,61.25
2023-04-02T19:11:06.580Z,61.47
2023-04-02T19:16:09.374Z,61.50
2023-04-02T19:21:44.358Z,61.61
2023-04-02T19:26:57.360Z,61.75
2023-04-02T19:32:12.045Z,61.82
2023-04-02T19:37:52.725Z,61.86
2023-04-02T19:42:56.186Z,61.84
2023-04-02T19:48:01.673Z,61.82
2023-04-02T19:53:04.577Z,61.87
2023-04-02T19:58:18.677Z,62.05
2023-04-02T20:03:22.590Z,62.05
2023-04-02T20:08:26.284Z,61.80
2023-04-02T20:13:29.658Z,62.12
2023-04-02T20:18:32.653Z,61.87
2023-04-02T20:23:36.193Z,62.01
2023-04-02T20:28:39.217Z,62.29
2023-04-02T20:33:42.328Z,62.56
2023-04-02T20:38:45.931Z,62.81
2023-04-02T20:43:50.128Z,63.08
2023-04-02T20:48:53.180Z,63.22
2023-04-02T20:53:56.512Z,63.51
2023-04-02T20:58:59.340Z,63.85
2023-04-02T21:04:04.680Z,64.16
2023-04-02T21:09:15.166Z,64.49
2023-04-02T21:14:18.362Z,64.75
2023-04-02T21:19:21.178Z,65.33
2023-04-02T21:24:24.066Z,65.24
2023-04-02T21:29:26.956Z,65.55
2023-04-02T21:34:29.591Z,65.77
2023-04-02T21:39:33.956Z,65.75
2023-04-02T21:44:36.590Z,66.00
2023-04-02T21:49:39.053Z,66.38
2023-04-02T21:54:41.586Z,66.96
2023-04-02T21:59:44.217Z,67.25
2023-04-02T22:04:46.877Z,67.48
2023-04-02T22:09:49.810Z,67.55
2023-04-02T22:14:52.674Z,68.14
2023-04-02T22:19:55.852Z,68.18
2023-04-02T22:25:00.529Z,68.52
2023-04-02T22:30:03.497Z,68.95
2023-04-02T22:35:06.752Z,69.42
2023-04-02T22:40:09.968Z,69.17
2023-04-02T22:45:13.293Z,69.42
2023-04-02T22:50:17.469Z,69.49
2023-04-02T22:55:20.395Z,69.75
2023-04-02T23:00:24.371Z,69.87
2023-04-02T23:05:27.223Z,70.11
2023-04-02T23:10:30.825Z,70.38
2023-04-02T23:15:34.167Z,70.73
2023-04-02T23:20:37.527Z,70.68
2023-04-02T23:25:41.550Z,70.64
2023-04-02T23:30:44.983Z,70.78
2023-04-02T23:35:48.057Z,70.77
2023-04-02T23:40:50.655Z,70.64
2023-04-02T23:45:53.391Z,70.93
2023-04-02T23:50:56.457Z,70.84
2023-04-02T23:55:59.297Z,71.24
